createdAt,value
2023-02-16T00:01:02.277Z,21.43
2023-02-16T00:03:30.011Z,22.13
2023-02-16T00:05:57.682Z,21.57
2023-02-16T00:08:26.467Z,20.80
2023-02-16T00:11:11.497Z,23.40
2023-02-16T00:13:53.097Z,23.63
2023-02-16T00:16:21.561Z,24.83
2023-02-16T00:18:49.391Z,22.97
2023-02-16T00:21:17.211Z,23.57
2023-02-16T00:23:46.043Z,23.97
2023-02-16T00:26:15.279Z,25.80
2023-02-16T00:28:43.249Z,23.87
2023-02-16T00:31:16.531Z,24.53
2023-02-16T00:33:44.018Z,20.20
2023-02-16T00:36:11.725Z,24.03
2023-02-16T00:38:39.438Z,21.73
2023-02-16T00:41:35.494Z,22.87
2023-02-16T00:44:02.943Z,20.97
2023-02-16T00:46:30.453Z,23.30
2023-02-16T00:48:57.898Z,21.90
2023-02-16T00:51:26.480Z,24.30
2023-02-16T00:53:54.149Z,22.43
2023-02-16T00:56:23.245Z,22.60
2023-02-16T00:58:52.035Z,22.50
2023-02-16T01:01:21.316Z,22.73
2023-02-16T01:03:48.812Z,21.33
2023-02-16T01:06:33.623Z,21.60
2023-02-16T01:09:21.453Z,22.03
2023-02-16T01:11:50.219Z,22.50
2023-02-16T01:14:17.720Z,20.87
2023-02-16T01:16:45.179Z,26.30
2023-02-16T01:19:12.710Z,21.80
2023-02-16T01:21:40.261Z,21.03
2023-02-16T01:24:07.936Z,21.97
2023-02-16T01:26:38.939Z,21.00
2023-02-16T01:29:07.681Z,23.03
2023-02-16T01:31:35.173Z,22.67
2023-02-16T01:34:02.698Z,23.07
2023-02-16T01:36:33.358Z,22.07
2023-02-16T01:39:00.984Z,20.43
2023-02-16T01:41:38.431Z,21.67
2023-02-16T01:44:08.827Z,21.70
2023-02-16T01:46:40.335Z,23.57
2023-02-16T01:49:12.700Z,27.33
2023-02-16T01:51:46.941Z,21.30
2023-02-16T01:54:19.226Z,23.90
2023-02-16T01:56:48.705Z,22.70
2023-02-16T01:59:22.749Z,25.47
2023-02-16T02:01:54.662Z,23.10
2023-02-16T02:04:44.213Z,25.57
2023-02-16T02:07:15.125Z,24.97
2023-02-16T02:09:45.479Z,24.37
2023-02-16T02:12:16.537Z,22.20
2023-02-16T02:14:43.980Z,22.50
2023-02-16T02:17:14.534Z,23.30
2023-02-16T02:19:46.829Z,23.90
2023-02-16T02:22:48.126Z,22.30
2023-02-16T02:25:26.380Z,22.10
2023-02-16T02:27:58.495Z,22.87
2023-02-16T02:30:37.544Z,20.90
2023-02-16T02:33:10.665Z,25.80
2023-02-16T02:35:44.581Z,24.80
2023-02-16T02:38:14.103Z,25.03
2023-02-16T02:40:48.421Z,32.30
2023-02-16T02:43:20.133Z,31.03
2023-02-16T02:45:48.891Z,24.10
2023-02-16T02:48:16.419Z,26.30
2023-02-16T02:51:09.802Z,21.50
2023-02-16T02:53:38.515Z,26.83
2023-02-16T02:56:23.829Z,21.60
2023-02-16T02:59:14.029Z,22.40
2023-02-16T03:01:44.950Z,21.10
2023-02-16T03:04:12.636Z,24.30
2023-02-16T03:06:42.632Z,24.67
2023-02-16T03:09:12.105Z,24.93
2023-02-16T03:11:57.034Z,23.37
2023-02-16T03:14:27.178Z,25.57
2023-02-16T03:17:14.037Z,24.10
2023-02-16T03:20:00.457Z,26.30
2023-02-16T03:22:45.829Z,23.60
2023-02-16T03:25:30.677Z,24.40
2023-02-16T03:28:17.293Z,22.43
2023-02-16T03:30:46.958Z,22.83
2023-02-16T03:33:14.544Z,21.97
2023-02-16T03:35:42.021Z,27.50
2023-02-16T03:38:09.710Z,25.07
2023-02-16T03:40:40.749Z,23.17
2023-02-16T03:43:09.037Z,23.20
2023-02-16T03:45:38.222Z,27.27
2023-02-16T03:48:07.685Z,26.60
2023-02-16T03:50:35.153Z,22.20
2023-02-16T03:53:07.812Z,24.93
2023-02-16T03:55:35.909Z,24.83
2023-02-16T03:58:03.683Z,28.50
2023-02-16T04:00:31.209Z,25.90
2023-02-16T04:02:58.611Z,29.30
2023-02-16T04:05:27.989Z,26.73
2023-02-16T04:07:55.418Z,27.40
2023-02-16T04:10:23.355Z,25.13
2023-02-16T04:12:49.916Z,26.87
2023-02-16T04:15:18.794Z,24.00
2023-02-16T04:17:46.693Z,28.33
2023-02-16T04:20:15.753Z,26.20
2023-02-16T04:22:46.550Z,26.53
2023-02-16T04:25:14.253Z,27.70
2023-02-16T04:27:41.965Z,29.30
2023-02-16T04:30:10.757Z,28.97
2023-02-16T04:32:38.170Z,25.97
2023-02-16T04:35:06.095Z,29.07
2023-02-16T04:37:33.753Z,25.33
2023-02-16T04:40:02.652Z,28.77
2023-02-16T04:42:30.270Z,26.30
2023-02-16T04:44:58.043Z,26.50
2023-02-16T04:47:26.666Z,29.43
2023-02-16T04:49:54.633Z,24.90
2023-02-16T04:52:22.137Z,25.23
2023-02-16T04:54:49.615Z,25.80
2023-02-16T04:57:19.251Z,23.60
2023-02-16T04:59:46.740Z,27.77
2023-02-16T05:02:14.291Z,26.73
2023-02-16T05:04:42.196Z,27.70
2023-02-16T05:07:10.059Z,25.60
2023-02-16T05:09:37.846Z,25.33
2023-02-16T05:12:23.135Z,26.60
2023-02-16T05:14:51.985Z,24.70
2023-02-16T05:17:20.698Z,27.03
2023-02-16T05:19:48.962Z,27.27
2023-02-16T05:22:16.938Z,28.50
2023-02-16T05:24:44.784Z,30.23
2023-02-16T05:27:13.779Z,29.17
2023-02-16T05:29:41.279Z,26.20
2023-02-16T05:32:10.272Z,29.20
2023-02-16T05:34:37.742Z,25.60
2023-02-16T05:37:05.400Z,27.10
2023-02-16T05:39:33.004Z,25.77
2023-02-16T05:42:00.425Z,27.43
2023-02-16T05:44:28.105Z,27.43
2023-02-16T05:46:55.561Z,24.43
2023-02-16T05:49:24.319Z,26.00
2023-02-16T05:51:51.803Z,23.87
2023-02-16T05:54:19.562Z,24.77
2023-02-16T05:56:47.565Z,27.93
2023-02-16T05:59:15.948Z,23.50
2023-02-16T06:01:43.611Z,26.40
2023-02-16T06:04:11.532Z,25.97
2023-02-16T06:06:40.505Z,25.23
2023-02-16T06:09:08.782Z,25.40
2023-02-16T06:11:39.282Z,24.00
2023-02-16T06:14:08.566Z,24.20
2023-02-16T06:16:36.354Z,25.43
2023-02-16T06:19:04.405Z,26.00
2023-02-16T06:21:32.334Z,22.73
2023-02-16T06:24:01.443Z,29.23
2023-02-16T06:26:28.984Z,30.83
2023-02-16T06:28:56.599Z,27.50
2023-02-16T06:31:25.092Z,28.13
2023-02-16T06:33:52.934Z,26.20
2023-02-16T06:36:20.645Z,25.63
2023-02-16T06:38:48.082Z,29.73
2023-02-16T06:41:31.281Z,28.13
2023-02-16T06:43:59.830Z,26.80
2023-02-16T06:46:27.615Z,27.20
2023-02-16T06:48:55.406Z,26.23
2023-02-16T06:51:22.835Z,28.77
2023-02-16T06:53:50.444Z,23.47
2023-02-16T06:56:19.260Z,30.00
2023-02-16T06:58:46.724Z,28.30
2023-02-16T07:01:14.333Z,30.67
2023-02-16T07:03:41.882Z,30.23
2023-02-16T07:06:09.471Z,28.90
2023-02-16T07:08:36.879Z,29.03
2023-02-16T07:11:04.844Z,27.53
2023-02-16T07:13:36.416Z,25.87
2023-02-16T07:16:04.940Z,24.63
2023-02-16T07:18:32.801Z,27.47
2023-02-16T07:21:00.305Z,27.43
2023-02-16T07:23:27.834Z,27.20
2023-02-16T07:25:55.276Z,28.47
2023-02-16T07:28:22.719Z,26.90
2023-02-16T07:30:51.806Z,28.83
2023-02-16T07:33:19.968Z,29.67
2023-02-16T07:35:47.521Z,29.77
2023-02-16T07:38:15.105Z,26.67
2023-02-16T07:40:42.533Z,27.03
2023-02-16T07:43:10.588Z,28.40
2023-02-16T07:45:38.098Z,28.60
2023-02-16T07:48:07.171Z,25.80
2023-02-16T07:50:34.769Z,26.60
2023-02-16T07:53:02.699Z,26.50
2023-02-16T07:55:30.564Z,28.63
2023-02-16T07:57:57.988Z,30.93
2023-02-16T08:00:25.443Z,28.03
2023-02-16T08:02:53.074Z,31.87
2023-02-16T08:05:21.926Z,28.50
2023-02-16T08:07:49.391Z,25.40
2023-02-16T08:10:17.145Z,30.63
2023-02-16T08:12:44.763Z,30.30
2023-02-16T08:15:12.523Z,30.17
2023-02-16T08:17:40.001Z,27.70
2023-02-16T08:20:08.606Z,27.20
2023-02-16T08:22:37.699Z,26.40
2023-02-16T08:25:07.019Z,28.33
2023-02-16T08:27:34.587Z,30.43
2023-02-16T08:30:02.057Z,29.30
2023-02-16T08:32:29.693Z,29.50
2023-02-16T08:34:57.398Z,32.40
2023-02-16T08:37:24.986Z,30.80
2023-02-16T08:39:53.849Z,30.90
2023-02-16T08:42:21.619Z,27.20
2023-02-16T08:44:49.131Z,29.60
2023-02-16T08:47:20.079Z,27.87
2023-02-16T08:49:47.702Z,29.00
2023-02-16T08:52:15.172Z,28.17
2023-02-16T08:54:42.666Z,25.97
2023-02-16T08:57:11.513Z,27.33
2023-02-16T08:59:38.924Z,28.40
2023-02-16T09:02:06.827Z,30.20
2023-02-16T09:04:34.381Z,32.63
2023-02-16T09:07:01.916Z,28.97
2023-02-16T09:09:29.658Z,31.90
2023-02-16T09:11:58.071Z,28.30
2023-02-16T09:14:28.000Z,30.60
2023-02-16T09:16:55.784Z,25.77
2023-02-16T09:19:23.251Z,30.97
2023-02-16T09:21:52.080Z,30.13
2023-02-16T09:24:19.619Z,26.27
2023-02-16T09:26:47.094Z,31.60
2023-02-16T09:29:14.669Z,26.93
2023-02-16T09:31:44.439Z,25.47
2023-02-16T09:34:16.045Z,27.47
2023-02-16T09:36:43.977Z,31.93
2023-02-16T09:39:11.487Z,28.13
2023-02-16T09:41:44.368Z,30.90
2023-02-16T09:44:18.340Z,28.30
2023-02-16T09:46:47.860Z,28.30
2023-02-16T09:49:23.785Z,29.50
2023-02-16T09:51:55.743Z,29.27
2023-02-16T09:54:29.293Z,27.20
2023-02-16T09:56:59.691Z,25.40
2023-02-16T09:59:38.369Z,23.57
2023-02-16T10:02:25.619Z,28.77
2023-02-16T10:05:13.189Z,24.80
2023-02-16T10:07:46.634Z,27.50
2023-02-16T10:10:16.361Z,25.27
2023-02-16T10:12:46.894Z,25.30
2023-02-16T10:15:16.443Z,24.73
2023-02-16T10:17:47.876Z,27.13
2023-02-16T10:20:17.337Z,26.10
2023-02-16T10:22:47.375Z,25.17
2023-02-16T10:25:16.957Z,25.53
2023-02-16T10:27:46.059Z,28.40
2023-02-16T10:30:15.284Z,24.63
2023-02-16T10:32:48.368Z,26.30
2023-02-16T10:35:20.530Z,26.93
2023-02-16T10:37:53.222Z,29.33
2023-02-16T10:40:28.634Z,27.67
2023-02-16T10:42:59.494Z,26.67
2023-02-16T10:45:31.872Z,26.23
2023-02-16T10:47:59.491Z,23.90
2023-02-16T10:50:31.231Z,21.90
2023-02-16T10:53:00.956Z,25.43
2023-02-16T10:55:28.429Z,28.73
2023-02-16T10:57:57.057Z,26.10
2023-02-16T11:00:27.910Z,25.80
2023-02-16T11:02:56.685Z,24.67
2023-02-16T11:05:33.741Z,24.30
2023-02-16T11:08:02.497Z,25.23
2023-02-16T11:10:40.216Z,22.53
2023-02-16T11:13:08.968Z,22.53
2023-02-16T11:15:37.686Z,24.53
2023-02-16T11:18:07.980Z,24.07
2023-02-16T11:20:51.608Z,27.83
2023-02-16T11:23:22.996Z,30.87
2023-02-16T11:25:56.456Z,25.30
2023-02-16T11:28:30.327Z,22.37
2023-02-16T11:31:04.954Z,26.83
2023-02-16T11:33:34.705Z,25.20
2023-02-16T11:36:05.302Z,27.03
2023-02-16T11:38:33.768Z,23.00
2023-02-16T11:41:02.878Z,23.03
2023-02-16T11:43:32.891Z,22.33
2023-02-16T11:46:02.222Z,28.00
2023-02-16T11:48:31.224Z,24.50
2023-02-16T11:51:00.133Z,23.80
2023-02-16T11:53:30.235Z,24.13
2023-02-16T11:56:23.319Z,23.27
2023-02-16T11:59:03.910Z,28.80
2023-02-16T12:01:37.524Z,24.03
2023-02-16T12:04:08.824Z,26.27
2023-02-16T12:06:47.074Z,21.83
2023-02-16T12:09:20.770Z,31.33
2023-02-16T12:11:52.668Z,25.20
2023-02-16T12:14:24.248Z,23.17
2023-02-16T12:16:54.242Z,23.50
2023-02-16T12:19:28.844Z,22.37
2023-02-16T12:21:58.962Z,25.20
2023-02-16T12:24:36.710Z,25.40
2023-02-16T12:27:05.631Z,22.77
2023-02-16T12:29:41.404Z,24.83
2023-02-16T12:32:17.105Z,22.50
2023-02-16T12:34:51.582Z,26.20
2023-02-16T12:37:22.588Z,23.30
2023-02-16T12:39:56.582Z,26.40
2023-02-16T12:42:34.696Z,26.47
2023-02-16T12:45:04.156Z,22.13
2023-02-16T12:47:33.734Z,24.63
2023-02-16T12:50:03.424Z,22.33
2023-02-16T12:52:36.173Z,24.37
2023-02-16T12:55:12.356Z,23.60
2023-02-16T12:57:42.953Z,26.63
2023-02-16T13:00:16.893Z,22.80
2023-02-16T13:02:48.126Z,20.60
2023-02-16T13:05:19.041Z,19.70
2023-02-16T13:07:47.995Z,23.47
2023-02-16T13:10:19.172Z,21.13
2023-02-16T13:12:50.534Z,26.40
2023-02-16T13:15:20.666Z,21.10
2023-02-16T13:17:49.917Z,21.27
2023-02-16T13:20:19.735Z,20.83
2023-02-16T13:23:00.630Z,22.33
2023-02-16T13:25:37.299Z,22.57
2023-02-16T13:28:10.040Z,23.80
2023-02-16T13:30:45.816Z,23.20
2023-02-16T13:33:18.170Z,22.77
2023-02-16T13:35:53.602Z,22.53
2023-02-16T13:38:32.632Z,20.40
2023-02-16T13:41:12.956Z,22.07
2023-02-16T13:43:42.363Z,22.80
2023-02-16T13:46:14.890Z,24.10
2023-02-16T13:48:47.175Z,20.20
2023-02-16T13:51:16.686Z,23.93
2023-02-16T13:53:50.809Z,25.03
2023-02-16T13:56:23.265Z,30.77
2023-02-16T13:58:51.274Z,23.40
2023-02-16T14:01:43.174Z,23.83
2023-02-16T14:04:14.982Z,20.80
2023-02-16T14:06:43.651Z,28.83
2023-02-16T14:09:32.288Z,23.50
2023-02-16T14:12:05.664Z,20.30
2023-02-16T14:14:35.195Z,22.80
2023-02-16T14:17:24.420Z,21.50
2023-02-16T14:19:53.523Z,19.20
2023-02-16T14:22:23.064Z,21.10
2023-02-16T14:24:54.798Z,20.80
2023-02-16T14:27:43.844Z,20.00
2023-02-16T14:30:21.034Z,20.47
2023-02-16T14:32:50.336Z,27.53
2023-02-16T14:35:20.549Z,21.20
2023-02-16T14:37:54.053Z,21.83
2023-02-16T14:40:22.783Z,20.30
2023-02-16T14:42:53.280Z,20.17
2023-02-16T14:45:31.200Z,22.03
2023-02-16T14:48:04.574Z,20.80
2023-02-16T14:50:37.527Z,22.33
2023-02-16T14:53:34.992Z,21.33
2023-02-16T14:56:16.797Z,21.97
2023-02-16T14:58:52.862Z,22.13
2023-02-16T15:01:22.519Z,23.40
2023-02-16T15:03:51.597Z,21.40
2023-02-16T15:06:21.952Z,22.13
2023-02-16T15:08:56.977Z,20.13
2023-02-16T15:11:27.605Z,19.03
2023-02-16T15:13:56.452Z,19.30
2023-02-16T15:16:24.687Z,20.17
2023-02-16T15:18:53.254Z,23.50
2023-02-16T15:21:22.003Z,17.30
2023-02-16T15:23:50.701Z,16.90
2023-02-16T15:26:20.522Z,17.47
2023-02-16T15:28:52.256Z,20.27
2023-02-16T15:31:24.005Z,21.10
2023-02-16T15:33:54.887Z,17.33
2023-02-16T15:36:24.507Z,17.10
2023-02-16T15:38:59.250Z,17.20
2023-02-16T15:41:27.821Z,22.57
2023-02-16T15:43:55.609Z,18.30
2023-02-16T15:46:27.002Z,20.60
2023-02-16T15:48:54.584Z,18.30
2023-02-16T15:51:25.142Z,17.03
2023-02-16T15:53:53.680Z,17.50
2023-02-16T15:56:27.934Z,16.20
2023-02-16T15:58:55.925Z,19.37
2023-02-16T16:01:31.592Z,16.30
2023-02-16T16:04:00.407Z,16.40
2023-02-16T16:06:33.029Z,15.67
2023-02-16T16:09:00.957Z,16.27
2023-02-16T16:11:28.505Z,17.73
2023-02-16T16:13:56.064Z,18.10
2023-02-16T16:16:24.887Z,22.33
2023-02-16T16:18:53.832Z,20.60
2023-02-16T16:21:23.618Z,18.80
2023-02-16T16:23:59.013Z,16.67
2023-02-16T16:26:27.588Z,17.73
2023-02-16T16:28:55.816Z,19.10
2023-02-16T16:31:35.663Z,19.53
2023-02-16T16:34:03.881Z,16.33
2023-02-16T16:36:32.481Z,17.10
2023-02-16T16:39:10.088Z,18.27
2023-02-16T16:41:37.637Z,20.90
2023-02-16T16:44:05.356Z,16.47
2023-02-16T16:46:35.000Z,19.73
2023-02-16T16:49:04.477Z,16.57
2023-02-16T16:51:37.907Z,23.50
2023-02-16T16:54:06.187Z,22.40
2023-02-16T16:56:36.489Z,21.30
2023-02-16T16:59:04.380Z,21.77
2023-02-16T17:01:32.394Z,22.23
2023-02-16T17:04:01.551Z,18.07
2023-02-16T17:06:29.034Z,19.13
2023-02-16T17:08:56.469Z,21.70
2023-02-16T17:11:25.715Z,17.50
2023-02-16T17:13:54.760Z,19.03
2023-02-16T17:16:24.232Z,16.43
2023-02-16T17:18:51.656Z,18.47
2023-02-16T17:21:20.498Z,17.00
2023-02-16T17:23:53.138Z,16.50
2023-02-16T17:26:20.997Z,17.03
2023-02-16T17:28:48.493Z,15.80
2023-02-16T17:31:16.044Z,18.23
2023-02-16T17:33:44.778Z,14.77
2023-02-16T17:36:13.962Z,18.70
2023-02-16T17:38:42.845Z,16.53
2023-02-16T17:41:17.493Z,16.37
2023-02-16T17:43:44.911Z,17.50
2023-02-16T17:46:13.347Z,18.13
2023-02-16T17:48:40.882Z,17.20
2023-02-16T17:51:14.260Z,15.87
2023-02-16T17:53:43.089Z,15.57
2023-02-16T17:56:11.512Z,15.40
2023-02-16T17:58:39.102Z,18.53
2023-02-16T18:01:07.340Z,23.57
2023-02-16T18:03:34.866Z,18.47
2023-02-16T18:06:02.663Z,18.03
2023-02-16T18:08:30.324Z,16.63
2023-02-16T18:11:02.089Z,17.43
2023-02-16T18:13:29.691Z,16.53
2023-02-16T18:15:57.666Z,23.57
2023-02-16T18:18:25.119Z,15.93
2023-02-16T18:20:52.522Z,16.83
2023-02-16T18:23:19.987Z,15.73
2023-02-16T18:25:47.465Z,16.80
2023-02-16T18:28:18.261Z,15.07
2023-02-16T18:30:47.686Z,16.87
2023-02-16T18:33:15.164Z,25.57
2023-02-16T18:35:42.688Z,17.80
2023-02-16T18:38:10.236Z,15.37
2023-02-16T18:40:37.775Z,18.50
2023-02-16T18:43:05.142Z,16.93
2023-02-16T18:45:33.933Z,18.23
2023-02-16T18:48:01.392Z,15.47
2023-02-16T18:50:28.909Z,16.47
2023-02-16T18:52:56.337Z,15.70
2023-02-16T18:55:24.300Z,14.63
2023-02-16T18:57:51.686Z,16.30
2023-02-16T19:00:21.390Z,15.70
2023-02-16T19:02:50.368Z,15.50
2023-02-16T19:05:17.727Z,15.73
2023-02-16T19:07:45.202Z,17.23
2023-02-16T19:10:12.744Z,15.50
2023-02-16T19:12:40.558Z,16.40
2023-02-16T19:15:08.591Z,16.63
2023-02-16T19:17:36.277Z,18.80
2023-02-16T19:20:05.508Z,16.50
2023-02-16T19:22:33.684Z,15.20
2023-02-16T19:25:01.096Z,16.10
2023-02-16T19:27:28.514Z,20.37
2023-02-16T19:29:55.981Z,16.53
2023-02-16T19:32:23.434Z,17.03
2023-02-16T19:34:50.892Z,14.37
2023-02-16T19:37:19.730Z,15.80
2023-02-16T19:39:47.166Z,14.37
2023-02-16T19:42:14.647Z,14.60
2023-02-16T19:44:46.062Z,17.73
2023-02-16T19:47:13.509Z,13.73
2023-02-16T19:49:41.000Z,15.13
2023-02-16T19:52:08.464Z,13.20
2023-02-16T19:54:37.397Z,15.50
2023-02-16T19:57:05.209Z,16.90
2023-02-16T19:59:33.102Z,16.07
2023-02-16T20:02:00.836Z,11.70
2023-02-16T20:04:28.344Z,13.60
2023-02-16T20:06:56.420Z,13.30
2023-02-16T20:09:23.984Z,12.70
2023-02-16T20:11:52.818Z,12.73
2023-02-16T20:14:20.347Z,14.37
2023-02-16T20:16:49.445Z,11.50
2023-02-16T20:19:16.857Z,12.63
2023-02-16T20:21:46.233Z,12.30
2023-02-16T20:24:14.235Z,14.47
2023-02-16T20:26:43.811Z,12.30
2023-02-16T20:29:14.963Z,13.80
2023-02-16T20:31:43.305Z,13.77
2023-02-16T20:34:11.092Z,13.97
2023-02-16T20:36:38.784Z,13.27
2023-02-16T20:39:06.935Z,10.37
2023-02-16T20:41:34.618Z,13.67
2023-02-16T20:44:02.842Z,12.50
2023-02-16T20:46:31.851Z,10.80
2023-02-16T20:48:59.377Z,12.10
2023-02-16T20:51:27.137Z,13.40
2023-02-16T20:53:54.508Z,11.33
2023-02-16T20:56:22.582Z,14.33
2023-02-16T20:58:50.571Z,14.67
2023-02-16T21:01:20.625Z,13.17
2023-02-16T21:03:49.901Z,24.30
2023-02-16T21:06:17.625Z,11.90
2023-02-16T21:08:45.339Z,13.83
2023-02-16T21:11:12.842Z,13.10
2023-02-16T21:13:41.188Z,15.13
2023-02-16T21:16:09.261Z,16.87
2023-02-16T21:18:39.389Z,16.27
2023-02-16T21:21:09.725Z,17.20
2023-02-16T21:23:37.212Z,15.23
2023-02-16T21:26:06.298Z,19.60
2023-02-16T21:28:34.071Z,16.40
2023-02-16T21:31:03.054Z,20.53
2023-02-16T21:33:30.513Z,18.30
2023-02-16T21:36:03.296Z,17.53
2023-02-16T21:38:32.392Z,20.47
2023-02-16T21:41:20.407Z,19.17
2023-02-16T21:43:47.997Z,16.90
2023-02-16T21:46:15.465Z,19.83
2023-02-16T21:48:48.397Z,17.43
2023-02-16T21:51:17.040Z,18.13
2023-02-16T21:53:45.986Z,17.23
2023-02-16T21:56:23.692Z,21.10
2023-02-16T21:58:51.223Z,23.50
2023-02-16T22:01:22.708Z,19.20
2023-02-16T22:03:50.276Z,24.50
2023-02-16T22:06:17.697Z,19.23
2023-02-16T22:08:46.420Z,22.13
2023-02-16T22:11:14.592Z,23.20
2023-02-16T22:13:41.977Z,22.60
2023-02-16T22:16:10.260Z,20.20
2023-02-16T22:18:37.731Z,21.73
2023-02-16T22:21:05.702Z,26.47
2023-02-16T22:23:33.362Z,21.30
2023-02-16T22:26:02.538Z,24.70
2023-02-16T22:28:30.569Z,26.27
2023-02-16T22:30:58.073Z,24.63
2023-02-16T22:33:25.576Z,27.40
2023-02-16T22:35:53.124Z,22.00
2023-02-16T22:38:20.563Z,25.10
2023-02-16T22:40:47.984Z,24.87
2023-02-16T22:43:16.783Z,34.90
2023-02-16T22:45:44.206Z,21.80
2023-02-16T22:48:11.685Z,22.33
2023-02-16T22:50:39.116Z,19.70
2023-02-16T22:53:06.537Z,20.70
2023-02-16T22:55:33.931Z,22.37
2023-02-16T22:58:01.300Z,20.80
2023-02-16T23:00:30.105Z,23.13
2023-02-16T23:02:57.592Z,20.73
2023-02-16T23:05:24.992Z,20.07
2023-02-16T23:07:52.390Z,18.60
2023-02-16T23:10:19.836Z,19.90
2023-02-16T23:12:47.278Z,20.13
2023-02-16T23:15:14.693Z,21.27
2023-02-16T23:17:43.432Z,18.20
2023-02-16T23:20:11.197Z,18.40
2023-02-16T23:22:39.772Z,21.67
2023-02-16T23:25:25.150Z,22.10
2023-02-16T23:27:52.971Z,20.53
2023-02-16T23:30:20.896Z,20.00
2023-02-16T23:32:49.790Z,19.40
2023-02-16T23:35:17.266Z,19.73
2023-02-16T23:37:45.732Z,17.00
2023-02-16T23:40:13.508Z,20.30
2023-02-16T23:42:41.065Z,18.83
2023-02-16T23:45:08.897Z,17.97
2023-02-16T23:47:36.661Z,20.50
2023-02-16T23:50:05.838Z,19.60
2023-02-16T23:52:33.696Z,22.33
2023-02-16T23:55:01.108Z,19.27
2023-02-16T23:57:28.629Z,21.30
2023-02-16T23:59:56.062Z,19.93
